Time;durP1;ratioP1;P1;durP2;ratioP2;P2;SDS_P1;SDS_P2;PMS_P1;PMS_P2;Temp;Humidity;BMP_temperature;BMP_pressure;BME280_temperature;BME280_humidity;BME280_pressure;Samples;Min_cycle;Max_cycle;Signal;HPM_P1;HPM_P2
2022/03/18 00:02:12;;;;;;;11.35;5.15;;;;;;;;;;5050661;28;20033;-61
2022/03/18 00:04:42;;;;;;;10.70;5.25;;;;;;;;;;5051444;28;20493;-62
2022/03/18 00:07:08;;;;;;;12.50;6.40;;;;;;;;;;5031471;28;20110;-62
2022/03/18 00:09:34;;;;;;;12.43;5.93;;;;;;;;;;5050728;28;20045;-62
2022/03/18 00:12:00;;;;;;;11.07;5.97;;;;;;;;;;5050266;28;20406;-61
2022/03/18 00:14:26;;;;;;;8.68;5.63;;;;;;;;;;5050726;28;20486;-63
2022/03/18 00:16:52;;;;;;;11.35;6.45;;;;;;;;;;5052793;28;20048;-63
2022/03/18 00:19:18;;;;;;;10.02;6.93;;;;;;;;;;5037320;28;20330;-63
2022/03/18 00:21:45;;;;;;;12.57;7.57;;;;;;;;;;5055027;28;20114;-63
2022/03/18 00:24:11;;;;;;;10.93;6.57;;;;;;;;;;5055152;28;20049;-63
2022/03/18 00:26:37;;;;;;;13.15;7.65;;;;;;;;;;5055023;28;20401;-63
2022/03/18 00:29:04;;;;;;;13.80;8.68;;;;;;;;;;5054094;28;20068;-63
2022/03/18 00:31:30;;;;;;;15.38;8.85;;;;;;;;;;5055001;28;20067;-63
2022/03/18 00:33:56;;;;;;;13.38;7.68;;;;;;;;;;5054256;28;20047;-63
2022/03/18 00:36:22;;;;;;;11.50;7.32;;;;;;;;;;5053826;28;20040;-63
2022/03/18 00:38:48;;;;;;;16.63;8.20;;;;;;;;;;5053858;28;20052;-62
2022/03/18 00:41:14;;;;;;;16.23;7.80;;;;;;;;;;5054258;28;20118;-62
2022/03/18 00:43:40;;;;;;;16.15;8.18;;;;;;;;;;5054755;28;20116;-60
2022/03/18 00:46:06;;;;;;;13.57;7.22;;;;;;;;;;5053752;28;20029;-63
2022/03/18 00:54:02;;;;;;;13.02;8.10;;;;;;;;;;5054190;28;20041;-63
2022/03/18 00:56:28;;;;;;;11.75;6.88;;;;;;;;;;5053578;28;20094;-63
2022/03/18 00:58:55;;;;;;;11.65;7.82;;;;;;;;;;5053401;28;20044;-61
2022/03/18 01:01:21;;;;;;;15.10;8.10;;;;;;;;;;5053623;28;20136;-63
2022/03/18 01:03:47;;;;;;;13.95;7.95;;;;;;;;;;5053834;28;20233;-62
2022/03/18 01:06:13;;;;;;;12.07;7.80;;;;;;;;;;5054213;28;20047;-61
2022/03/18 01:08:39;;;;;;;12.93;8.13;;;;;;;;;;5053020;28;20041;-60
2022/03/18 01:11:05;;;;;;;10.15;7.38;;;;;;;;;;5035637;28;20041;-59
2022/03/18 01:13:31;;;;;;;14.40;8.50;;;;;;;;;;5053844;28;20041;-61
2022/03/18 01:15:57;;;;;;;10.55;7.40;;;;;;;;;;5053261;28;20092;-60
2022/03/18 01:18:23;;;;;;;12.07;7.28;;;;;;;;;;5053704;28;20044;-61
2022/03/18 01:20:49;;;;;;;10.88;7.57;;;;;;;;;;5053702;28;20044;-59
2022/03/18 01:23:15;;;;;;;14.65;7.85;;;;;;;;;;5053910;28;20037;-60
2022/03/18 01:25:41;;;;;;;12.13;7.20;;;;;;;;;;5053644;28;20485;-60
2022/03/18 01:28:07;;;;;;;12.50;6.97;;;;;;;;;;5053818;28;20498;-58
2022/03/18 01:30:34;;;;;;;12.15;6.50;;;;;;;;;;5053540;28;20402;-61
2022/03/18 01:33:00;;;;;;;11.82;8.05;;;;;;;;;;5033582;28;20548;-61
2022/03/18 01:35:27;;;;;;;10.40;6.93;;;;;;;;;;5023398;28;20052;-60
2022/03/18 01:37:53;;;;;;;11.43;7.07;;;;;;;;;;5053660;28;20055;-61
2022/03/18 01:40:19;;;;;;;13.75;8.15;;;;;;;;;;5053550;28;20049;-61
2022/03/18 01:42:45;;;;;;;12.48;8.70;;;;;;;;;;5052827;28;20041;-60
2022/03/18 01:45:11;;;;;;;15.68;9.02;;;;;;;;;;5053298;28;20044;-59
2022/03/18 01:47:42;;;;;;;14.68;8.13;;;;;;;;;;5053148;28;20067;-60
2022/03/18 01:50:12;;;;;;;12.07;8.13;;;;;;;;;;5053307;28;20045;-61
2022/03/18 01:52:38;;;;;;;14.32;8.95;;;;;;;;;;5052972;28;20458;-61
2022/03/18 01:55:05;;;;;;;12.77;8.07;;;;;;;;;;5053815;28;20371;-60
2022/03/18 01:57:31;;;;;;;15.20;8.48;;;;;;;;;;5054016;28;20408;-59
2022/03/18 01:59:57;;;;;;;13.57;8.07;;;;;;;;;;5054058;28;20048;-59
2022/03/18 02:02:24;;;;;;;12.52;8.10;;;;;;;;;;5053190;28;20067;-58
2022/03/18 02:04:50;;;;;;;14.40;8.18;;;;;;;;;;5053636;28;20052;-60
2022/03/18 02:07:16;;;;;;;14.02;8.57;;;;;;;;;;5053240;28;20044;-62
2022/03/18 02:09:43;;;;;;;11.43;8.15;;;;;;;;;;5053250;28;20039;-60
2022/03/18 02:12:09;;;;;;;11.40;7.25;;;;;;;;;;5053713;28;20045;-58
2022/03/18 02:14:43;;;;;;;11.13;7.38;;;;;;;;;;5053069;28;20052;-60
2022/03/18 02:17:12;;;;;;;16.73;7.32;;;;;;;;;;5036141;28;20065;-59
2022/03/18 02:19:38;;;;;;;14.35;7.88;;;;;;;;;;5053431;28;20041;-61
2022/03/18 02:22:12;;;;;;;10.15;7.22;;;;;;;;;;5053847;28;20128;-58
2022/03/18 02:24:39;;;;;;;12.40;7.32;;;;;;;;;;5053410;28;20120;-61
2022/03/18 02:27:05;;;;;;;15.73;9.57;;;;;;;;;;5053274;28;20040;-59
2022/03/18 02:29:32;;;;;;;12.38;8.30;;;;;;;;;;5053343;28;20124;-60
2022/03/18 02:31:59;;;;;;;13.57;9.15;;;;;;;;;;5053280;28;20049;-60
2022/03/18 02:34:26;;;;;;;14.10;7.93;;;;;;;;;;5052860;28;20394;-60
2022/03/18 02:36:52;;;;;;;12.20;7.03;;;;;;;;;;5053466;28;20041;-61
2022/03/18 02:39:18;;;;;;;15.00;8.05;;;;;;;;;;5052372;28;20079;-60
2022/03/18 02:41:45;;;;;;;12.32;7.80;;;;;;;;;;5052213;28;20045;-66
2022/03/18 02:44:11;;;;;;;12.40;8.70;;;;;;;;;;5053674;28;20084;-61
2022/03/18 02:46:37;;;;;;;14.43;7.68;;;;;;;;;;5052545;28;20049;-64
2022/03/18 02:49:04;;;;;;;14.07;8.85;;;;;;;;;;5053165;28;20076;-62
2022/03/18 02:51:30;;;;;;;12.27;8.60;;;;;;;;;;5053052;28;20037;-61
2022/03/18 02:53:57;;;;;;;14.68;8.90;;;;;;;;;;5053164;28;20132;-62
2022/03/18 02:56:24;;;;;;;12.65;7.78;;;;;;;;;;5052104;28;20045;-63
2022/03/18 02:58:50;;;;;;;10.90;8.60;;;;;;;;;;5045608;28;20387;-61
2022/03/18 03:01:16;;;;;;;13.23;8.20;;;;;;;;;;5052342;28;20033;-63
2022/03/18 03:03:42;;;;;;;16.83;8.77;;;;;;;;;;5052914;28;20033;-62
2022/03/18 03:08:54;;;;;;;16.52;9.32;;;;;;;;;;5052176;28;20048;-63
2022/03/18 03:11:23;;;;;;;13.60;8.43;;;;;;;;;;5053257;28;20060;-63
2022/03/18 03:13:52;;;;;;;12.18;8.80;;;;;;;;;;5052822;28;20033;-63
2022/03/18 03:16:21;;;;;;;9.75;7.68;;;;;;;;;;5053760;28;20067;-63
2022/03/18 03:18:48;;;;;;;13.63;7.68;;;;;;;;;;5053359;28;20069;-62
2022/03/18 03:21:14;;;;;;;12.88;8.88;;;;;;;;;;5052872;28;20045;-64
2022/03/18 03:23:41;;;;;;;14.93;8.82;;;;;;;;;;5052993;28;20069;-63
2022/03/18 03:26:07;;;;;;;18.70;10.68;;;;;;;;;;5052364;28;20105;-63
2022/03/18 03:28:33;;;;;;;13.32;8.75;;;;;;;;;;5052590;28;20044;-63
2022/03/18 03:31:00;;;;;;;19.88;10.85;;;;;;;;;;5052338;28;20059;-64
2022/03/18 03:33:27;;;;;;;19.65;11.88;;;;;;;;;;5052482;28;20394;-64
2022/03/18 03:35:53;;;;;;;16.45;9.68;;;;;;;;;;5051958;28;20445;-63
2022/03/18 03:38:21;;;;;;;16.92;9.10;;;;;;;;;;5052406;28;20041;-63
2022/03/18 03:40:47;;;;;;;14.65;9.55;;;;;;;;;;5052180;28;20562;-64
2022/03/18 03:43:14;;;;;;;12.45;9.70;;;;;;;;;;5052243;28;20111;-64
2022/03/18 03:45:40;;;;;;;13.45;9.95;;;;;;;;;;5051121;28;20051;-62
2022/03/18 03:48:07;;;;;;;21.63;11.18;;;;;;;;;;5052296;28;20087;-63
2022/03/18 03:50:34;;;;;;;12.93;9.63;;;;;;;;;;5051896;28;20037;-63
2022/03/18 03:53:00;;;;;;;16.08;8.88;;;;;;;;;;5052378;28;20402;-64
2022/03/18 03:55:27;;;;;;;20.20;11.98;;;;;;;;;;5052501;28;20485;-63
2022/03/18 03:57:53;;;;;;;16.75;10.93;;;;;;;;;;5051920;28;20037;-63
2022/03/18 04:00:19;;;;;;;13.27;9.05;;;;;;;;;;5052098;28;20048;-64
2022/03/18 04:02:45;;;;;;;13.95;8.63;;;;;;;;;;5051677;28;20044;-64
2022/03/18 04:05:12;;;;;;;11.75;8.40;;;;;;;;;;5051634;28;20444;-63
2022/03/18 04:07:39;;;;;;;9.75;7.40;;;;;;;;;;5051719;28;20490;-64
2022/03/18 04:10:06;;;;;;;11.57;9.07;;;;;;;;;;5051827;28;20041;-63
2022/03/18 04:12:35;;;;;;;12.85;9.32;;;;;;;;;;5034021;28;20048;-64
2022/03/18 04:15:04;;;;;;;15.63;9.70;;;;;;;;;;5051187;28;20041;-64
2022/03/18 04:17:47;;;;;;;15.63;9.57;;;;;;;;;;5051787;28;20056;-62
2022/03/18 04:20:16;;;;;;;12.00;9.57;;;;;;;;;;5052072;28;20064;-63
2022/03/18 04:22:43;;;;;;;10.38;9.05;;;;;;;;;;5051666;28;20044;-63
2022/03/18 04:25:09;;;;;;;15.68;9.93;;;;;;;;;;5052002;28;20478;-62
2022/03/18 04:27:36;;;;;;;12.98;7.95;;;;;;;;;;5051421;28;20037;-60
2022/03/18 04:30:02;;;;;;;15.73;11.50;;;;;;;;;;5050895;28;20174;-60
2022/03/18 04:32:28;;;;;;;13.65;9.52;;;;;;;;;;5051592;28;20041;-61
2022/03/18 04:34:55;;;;;;;13.65;9.73;;;;;;;;;;5051380;28;20401;-58
2022/03/18 04:37:21;;;;;;;12.85;9.45;;;;;;;;;;5051599;28;20041;-61
2022/03/18 04:39:47;;;;;;;14.52;8.30;;;;;;;;;;5051619;28;20120;-60
2022/03/18 04:42:13;;;;;;;14.10;9.95;;;;;;;;;;5051097;28;20114;-61
2022/03/18 04:44:39;;;;;;;13.32;8.45;;;;;;;;;;5051818;28;20045;-62
2022/03/18 04:47:06;;;;;;;14.95;8.80;;;;;;;;;;5051151;28;20071;-60
2022/03/18 04:49:32;;;;;;;12.82;9.07;;;;;;;;;;5051762;28;20490;-60
2022/03/18 04:51:58;;;;;;;14.15;9.15;;;;;;;;;;5051728;28;20104;-60
2022/03/18 04:54:24;;;;;;;13.23;7.82;;;;;;;;;;5051485;28;20044;-59
2022/03/18 04:59:35;;;;;;;12.50;8.13;;;;;;;;;;5051449;28;20048;-59
2022/03/18 05:02:01;;;;;;;16.02;8.50;;;;;;;;;;5052501;28;20402;-61
2022/03/18 05:04:27;;;;;;;20.23;8.65;;;;;;;;;;5054805;28;20037;-59
2022/03/18 05:06:53;;;;;;;16.00;9.45;;;;;;;;;;5055356;28;20124;-60
2022/03/18 05:09:19;;;;;;;11.85;8.98;;;;;;;;;;5055513;28;20037;-59
2022/03/18 05:11:46;;;;;;;12.38;9.07;;;;;;;;;;5055227;28;20051;-59
2022/03/18 05:14:12;;;;;;;10.52;7.88;;;;;;;;;;5054619;28;20044;-58
2022/03/18 05:16:38;;;;;;;11.25;8.98;;;;;;;;;;5055378;28;20040;-64
2022/03/18 05:19:04;;;;;;;18.30;10.52;;;;;;;;;;5037672;28;20048;-63
2022/03/18 05:21:30;;;;;;;14.40;9.35;;;;;;;;;;5054914;28;20036;-62
2022/03/18 05:23:56;;;;;;;11.73;8.40;;;;;;;;;;5054808;28;20037;-61
2022/03/18 05:26:22;;;;;;;18.92;13.40;;;;;;;;;;5054404;28;20044;-60
2022/03/18 05:28:49;;;;;;;12.05;9.88;;;;;;;;;;5054501;28;20080;-61
2022/03/18 05:31:15;;;;;;;17.23;11.10;;;;;;;;;;5054775;28;20044;-60
2022/03/18 05:33:41;;;;;;;13.27;10.25;;;;;;;;;;5055090;28;20510;-60
2022/03/18 05:36:07;;;;;;;14.13;9.13;;;;;;;;;;5036309;28;20545;-61
2022/03/18 05:38:33;;;;;;;14.98;10.38;;;;;;;;;;5037343;28;20119;-61
2022/03/18 05:40:59;;;;;;;15.20;10.27;;;;;;;;;;5054049;28;20441;-62
2022/03/18 05:43:25;;;;;;;17.73;12.30;;;;;;;;;;5036904;28;20045;-60
2022/03/18 05:45:51;;;;;;;13.77;10.35;;;;;;;;;;5054368;28;20045;-60
2022/03/18 05:48:18;;;;;;;20.23;11.85;;;;;;;;;;5055015;28;20402;-62
2022/03/18 05:50:44;;;;;;;10.85;8.77;;;;;;;;;;5054681;28;20053;-64
2022/03/18 05:53:12;;;;;;;18.02;10.23;;;;;;;;;;5054192;28;20045;-63
2022/03/18 05:58:23;;;;;;;14.65;10.10;;;;;;;;;;5053781;28;20044;-60
2022/03/18 06:00:49;;;;;;;14.27;9.65;;;;;;;;;;5053017;28;20119;-61
2022/03/18 06:03:15;;;;;;;15.25;10.10;;;;;;;;;;5043435;28;20038;-60
2022/03/18 06:05:42;;;;;;;12.85;10.10;;;;;;;;;;5032396;28;20044;-61
2022/03/18 06:13:39;;;;;;;12.57;9.20;;;;;;;;;;5032868;28;20049;-63
2022/03/18 06:16:05;;;;;;;18.35;12.00;;;;;;;;;;5052431;28;20041;-63
2022/03/18 06:18:31;;;;;;;15.85;11.95;;;;;;;;;;5052070;28;20044;-63
2022/03/18 06:20:57;;;;;;;18.52;13.20;;;;;;;;;;5052979;28;20492;-63
2022/03/18 06:23:23;;;;;;;20.73;12.60;;;;;;;;;;5053109;28;20037;-63
2022/03/18 06:25:49;;;;;;;14.45;9.88;;;;;;;;;;5050991;28;20051;-63
2022/03/18 06:28:16;;;;;;;18.77;12.98;;;;;;;;;;5047490;28;20033;-63
2022/03/18 06:30:42;;;;;;;13.75;10.70;;;;;;;;;;5043770;28;20068;-63
2022/03/18 06:33:08;;;;;;;13.88;9.65;;;;;;;;;;5047377;28;20110;-63
2022/03/18 06:35:35;;;;;;;13.40;10.40;;;;;;;;;;5052742;28;20076;-63
2022/03/18 06:38:01;;;;;;;18.27;10.93;;;;;;;;;;5049110;28;20159;-63
2022/03/18 06:40:28;;;;;;;12.05;9.48;;;;;;;;;;5049256;28;20068;-63
2022/03/18 06:42:54;;;;;;;14.57;10.95;;;;;;;;;;5051961;28;20087;-63
2022/03/18 06:45:21;;;;;;;14.93;9.85;;;;;;;;;;5047984;28;20048;-62
2022/03/18 06:47:48;;;;;;;13.75;10.77;;;;;;;;;;5034269;28;20058;-62
2022/03/18 06:50:14;;;;;;;16.42;10.52;;;;;;;;;;5049861;28;20460;-62
2022/03/18 06:52:40;;;;;;;20.52;12.20;;;;;;;;;;5050979;28;20072;-62
2022/03/18 06:55:06;;;;;;;17.67;12.20;;;;;;;;;;5033004;28;20072;-62
2022/03/18 06:57:33;;;;;;;19.35;14.48;;;;;;;;;;5050722;28;20041;-63
2022/03/18 06:59:59;;;;;;;21.05;14.15;;;;;;;;;;5050400;28;20044;-65
2022/03/18 07:02:26;;;;;;;25.30;16.52;;;;;;;;;;5051738;28;20098;-62
2022/03/18 07:04:55;;;;;;;27.15;16.65;;;;;;;;;;5052224;28;20120;-65
2022/03/18 07:07:21;;;;;;;20.65;13.90;;;;;;;;;;5052285;28;20529;-63
2022/03/18 07:09:47;;;;;;;19.35;15.55;;;;;;;;;;5050857;28;20044;-66
2022/03/18 07:12:13;;;;;;;24.67;14.68;;;;;;;;;;5051185;28;20037;-63
2022/03/18 07:14:39;;;;;;;18.42;14.23;;;;;;;;;;5051484;28;20045;-69
2022/03/18 07:20:07;;;;;;;20.38;13.20;;;;;;;;;;4970584;28;20079;-63
2022/03/18 07:22:33;;;;;;;23.10;15.85;;;;;;;;;;5034437;28;20041;-62
2022/03/18 07:24:59;;;;;;;20.52;15.65;;;;;;;;;;5051376;28;20037;-62
2022/03/18 07:27:25;;;;;;;22.55;17.15;;;;;;;;;;5051433;28;20394;-63
2022/03/18 07:29:51;;;;;;;23.20;15.70;;;;;;;;;;5052221;28;20115;-63
2022/03/18 07:32:18;;;;;;;19.70;14.25;;;;;;;;;;5051662;28;20045;-63
2022/03/18 07:34:44;;;;;;;20.60;13.98;;;;;;;;;;5052026;28;20418;-63
2022/03/18 07:37:10;;;;;;;19.10;13.90;;;;;;;;;;5051926;28;20080;-63
2022/03/18 07:39:36;;;;;;;17.38;13.70;;;;;;;;;;5039644;28;20037;-63
2022/03/18 07:42:03;;;;;;;18.90;12.82;;;;;;;;;;5032058;28;20051;-63
2022/03/18 07:44:29;;;;;;;20.90;13.80;;;;;;;;;;5051265;28;20043;-63
2022/03/18 07:46:55;;;;;;;15.48;12.82;;;;;;;;;;5051763;28;20052;-64
2022/03/18 07:49:21;;;;;;;21.52;14.85;;;;;;;;;;5051305;28;20048;-61
2022/03/18 07:51:47;;;;;;;20.38;13.90;;;;;;;;;;5032482;28;20059;-61
2022/03/18 07:54:13;;;;;;;19.75;13.40;;;;;;;;;;5030632;28;20045;-61
2022/03/18 07:56:40;;;;;;;23.45;13.98;;;;;;;;;;5034447;28;20068;-61
2022/03/18 07:59:06;;;;;;;18.15;13.05;;;;;;;;;;5050841;28;20044;-61
2022/03/18 08:01:35;;;;;;;18.05;13.13;;;;;;;;;;5049198;28;20059;-62
2022/03/18 08:04:01;;;;;;;16.88;13.20;;;;;;;;;;5051175;28;20044;-63
2022/03/18 08:06:27;;;;;;;16.30;11.75;;;;;;;;;;5051061;28;20048;-62
2022/03/18 08:08:53;;;;;;;19.33;12.95;;;;;;;;;;5050802;28;20041;-62
2022/03/18 08:11:19;;;;;;;20.08;13.77;;;;;;;;;;5033549;28;20098;-62
2022/03/18 08:13:49;;;;;;;21.63;13.15;;;;;;;;;;5050687;28;20490;-60
2022/03/18 08:16:15;;;;;;;19.23;13.10;;;;;;;;;;5051535;28;20102;-61
2022/03/18 08:18:42;;;;;;;19.00;13.95;;;;;;;;;;5051273;28;20387;-60
2022/03/18 08:21:09;;;;;;;18.08;12.90;;;;;;;;;;5048740;28;20033;-61
2022/03/18 08:23:36;;;;;;;16.63;13.70;;;;;;;;;;5035716;28;20463;-60
2022/03/18 08:26:02;;;;;;;18.10;14.02;;;;;;;;;;5050423;28;20041;-59
2022/03/18 08:28:28;;;;;;;18.70;12.70;;;;;;;;;;5050216;28;20136;-60
2022/03/18 08:30:54;;;;;;;17.70;12.00;;;;;;;;;;5050203;28;20041;-59
2022/03/18 08:33:22;;;;;;;19.13;12.63;;;;;;;;;;5049937;28;20099;-60
2022/03/18 08:35:48;;;;;;;17.30;12.50;;;;;;;;;;5044950;28;20045;-60
2022/03/18 08:38:14;;;;;;;13.20;11.00;;;;;;;;;;5052366;28;20490;-60
2022/03/18 08:40:40;;;;;;;19.27;12.07;;;;;;;;;;5054444;28;20044;-61
2022/03/18 08:43:09;;;;;;;16.08;10.68;;;;;;;;;;5052786;28;20037;-62
2022/03/18 08:45:35;;;;;;;15.40;11.75;;;;;;;;;;5054045;28;20040;-59
2022/03/18 08:48:01;;;;;;;17.30;12.30;;;;;;;;;;5053699;28;20063;-61
2022/03/18 08:50:27;;;;;;;14.38;11.48;;;;;;;;;;5053516;28;20051;-61
2022/03/18 08:52:54;;;;;;;15.30;11.20;;;;;;;;;;5041407;28;20041;-62
2022/03/18 08:55:21;;;;;;;16.42;12.13;;;;;;;;;;5043394;28;20039;-63
2022/03/18 08:57:47;;;;;;;19.27;12.07;;;;;;;;;;5036913;28;20084;-63
2022/03/18 09:00:17;;;;;;;16.45;12.38;;;;;;;;;;5046740;28;20697;-63
2022/03/18 09:02:44;;;;;;;14.50;11.45;;;;;;;;;;5045109;28;20106;-62
2022/03/18 09:05:10;;;;;;;14.90;12.10;;;;;;;;;;5022692;28;20037;-63
2022/03/18 09:07:37;;;;;;;16.67;11.85;;;;;;;;;;5047071;28;20037;-63
2022/03/18 09:10:04;;;;;;;14.80;11.52;;;;;;;;;;5054082;28;20067;-63
2022/03/18 09:12:30;;;;;;;16.77;11.40;;;;;;;;;;5052453;28;20398;-63
2022/03/18 09:14:58;;;;;;;16.67;11.73;;;;;;;;;;5053987;28;20453;-63
2022/03/18 09:17:24;;;;;;;14.95;11.43;;;;;;;;;;5054235;28;20033;-63
2022/03/18 09:19:50;;;;;;;13.07;10.25;;;;;;;;;;5054350;28;20044;-63
2022/03/18 09:22:16;;;;;;;19.00;11.50;;;;;;;;;;5052945;28;20029;-64
2022/03/18 09:24:43;;;;;;;15.50;11.32;;;;;;;;;;5054185;28;20037;-63
2022/03/18 09:27:10;;;;;;;14.98;9.80;;;;;;;;;;5053676;28;20044;-64
2022/03/18 09:29:36;;;;;;;15.48;10.32;;;;;;;;;;5054394;28;20076;-64
2022/03/18 09:32:02;;;;;;;12.63;9.90;;;;;;;;;;5053889;28;20040;-62
2022/03/18 09:34:28;;;;;;;14.68;10.50;;;;;;;;;;5052449;28;20076;-64
2022/03/18 09:36:56;;;;;;;13.25;10.25;;;;;;;;;;5054983;28;20120;-64
2022/03/18 09:39:23;;;;;;;16.50;10.30;;;;;;;;;;5053991;28;20037;-64
2022/03/18 09:41:49;;;;;;;15.27;10.63;;;;;;;;;;5053842;28;20032;-63
2022/03/18 09:44:15;;;;;;;14.27;9.88;;;;;;;;;;5053733;28;20037;-64
2022/03/18 09:46:42;;;;;;;14.50;10.63;;;;;;;;;;5051901;28;20045;-62
2022/03/18 09:49:11;;;;;;;11.73;9.90;;;;;;;;;;5050489;28;20080;-64
2022/03/18 09:51:42;;;;;;;15.80;9.95;;;;;;;;;;5047520;28;20072;-64
2022/03/18 09:54:10;;;;;;;12.88;9.38;;;;;;;;;;5038928;28;20045;-64
2022/03/18 09:56:39;;;;;;;13.75;10.07;;;;;;;;;;5042881;28;20437;-63
2022/03/18 09:59:05;;;;;;;11.57;8.77;;;;;;;;;;5039667;28;20116;-64
2022/03/18 10:01:32;;;;;;;10.70;9.25;;;;;;;;;;5020026;28;20045;-64
2022/03/18 10:04:07;;;;;;;11.65;9.90;;;;;;;;;;5042589;28;20137;-64
2022/03/18 10:06:34;;;;;;;14.25;9.90;;;;;;;;;;5042866;28;20041;-64
2022/03/18 10:09:00;;;;;;;13.48;9.55;;;;;;;;;;5029966;28;20041;-65
2022/03/18 10:11:27;;;;;;;13.23;9.50;;;;;;;;;;5032777;28;20041;-64
2022/03/18 10:13:54;;;;;;;11.98;9.60;;;;;;;;;;5051783;28;20080;-63
2022/03/18 10:16:33;;;;;;;12.85;8.90;;;;;;;;;;5052141;28;20087;-64
2022/03/18 10:19:01;;;;;;;17.42;9.27;;;;;;;;;;5040919;28;20041;-62
2022/03/18 10:21:28;;;;;;;11.73;9.38;;;;;;;;;;5033545;28;20051;-64
2022/03/18 10:24:08;;;;;;;12.40;9.88;;;;;;;;;;5047535;28;20091;-65
2022/03/18 10:26:35;;;;;;;14.13;9.23;;;;;;;;;;5035048;28;20055;-65
2022/03/18 10:29:01;;;;;;;13.30;9.13;;;;;;;;;;5052507;28;20032;-65
2022/03/18 10:31:27;;;;;;;14.05;10.05;;;;;;;;;;5049996;28;20048;-65
2022/03/18 10:39:28;;;;;;;16.13;10.43;;;;;;;;;;5051868;28;20040;-68
2022/03/18 10:41:55;;;;;;;12.55;9.18;;;;;;;;;;5052280;28;20045;-67
2022/03/18 10:44:21;;;;;;;12.90;9.23;;;;;;;;;;5033814;28;20044;-66
2022/03/18 10:46:49;;;;;;;12.30;9.23;;;;;;;;;;5052346;28;20048;-66
2022/03/18 10:49:16;;;;;;;9.63;8.50;;;;;;;;;;5051654;28;20033;-63
2022/03/18 10:51:43;;;;;;;13.63;9.60;;;;;;;;;;5034777;28;20037;-64
2022/03/18 10:54:09;;;;;;;12.45;8.95;;;;;;;;;;5034122;28;20032;-66
2022/03/18 10:56:52;;;;;;;10.75;8.45;;;;;;;;;;5052692;28;20466;-65
2022/03/18 10:59:18;;;;;;;10.45;7.93;;;;;;;;;;5050171;28;20048;-65
2022/03/18 11:01:47;;;;;;;13.45;8.20;;;;;;;;;;5030696;28;20040;-65
2022/03/18 11:04:15;;;;;;;13.40;8.45;;;;;;;;;;5051056;28;20033;-65
2022/03/18 11:06:42;;;;;;;14.45;8.20;;;;;;;;;;5050081;28;20047;-64
2022/03/18 11:09:09;;;;;;;12.18;8.18;;;;;;;;;;5051035;28;20044;-65
2022/03/18 11:11:36;;;;;;;11.45;9.43;;;;;;;;;;5032721;28;20041;-65
2022/03/18 11:14:06;;;;;;;10.40;8.63;;;;;;;;;;5052531;28;20067;-66
2022/03/18 11:16:35;;;;;;;12.02;9.70;;;;;;;;;;5051824;28;20123;-65
2022/03/18 11:19:08;;;;;;;13.10;9.52;;;;;;;;;;5051100;28;20040;-63
2022/03/18 11:21:39;;;;;;;10.90;8.80;;;;;;;;;;5051027;28;20041;-65
2022/03/18 11:24:10;;;;;;;10.30;8.10;;;;;;;;;;5051344;28;20045;-64
2022/03/18 11:26:36;;;;;;;13.68;8.70;;;;;;;;;;5051773;28;20072;-67
2022/03/18 11:29:07;;;;;;;12.30;8.57;;;;;;;;;;5051491;28;20099;-67
2022/03/18 11:31:36;;;;;;;9.50;8.30;;;;;;;;;;5050576;28;20041;-66
2022/03/18 11:34:09;;;;;;;10.43;8.13;;;;;;;;;;5050573;28;20052;-68
2022/03/18 11:36:37;;;;;;;10.45;8.07;;;;;;;;;;5050548;28;20124;-69
2022/03/18 11:39:08;;;;;;;10.73;8.63;;;;;;;;;;5050876;28;20065;-66
2022/03/18 11:41:51;;;;;;;8.82;7.20;;;;;;;;;;5050625;28;20087;-62
2022/03/18 11:44:53;;;;;;;10.75;7.20;;;;;;;;;;5034242;28;20056;-62
2022/03/18 11:47:20;;;;;;;8.40;7.47;;;;;;;;;;4961745;28;20073;-62
2022/03/18 11:49:46;;;;;;;11.00;8.23;;;;;;;;;;5030556;28;20091;-61
2022/03/18 11:52:13;;;;;;;11.15;7.80;;;;;;;;;;5041649;28;20033;-62
2022/03/18 11:54:51;;;;;;;11.30;8.25;;;;;;;;;;5042584;28;20084;-62
2022/03/18 11:57:34;;;;;;;8.83;7.23;;;;;;;;;;5006887;28;1070488;-63
2022/03/18 12:00:05;;;;;;;10.70;8.30;;;;;;;;;;5050623;28;20048;-63
2022/03/18 12:02:35;;;;;;;10.63;7.47;;;;;;;;;;5051403;28;20108;-62
2022/03/18 12:05:01;;;;;;;9.68;7.15;;;;;;;;;;5050342;28;20051;-63
2022/03/18 12:07:30;;;;;;;11.80;7.63;;;;;;;;;;5050771;28;20041;-63
2022/03/18 12:09:56;;;;;;;10.55;8.38;;;;;;;;;;5051141;28;20045;-63
2022/03/18 12:12:23;;;;;;;7.05;5.60;;;;;;;;;;5048966;28;20383;-67
2022/03/18 12:14:51;;;;;;;7.88;5.40;;;;;;;;;;5050399;28;20056;-63
2022/03/18 12:17:17;;;;;;;8.25;5.00;;;;;;;;;;5050521;28;20037;-65
2022/03/18 12:19:53;;;;;;;7.60;4.72;;;;;;;;;;5051379;28;20456;-63
2022/03/18 12:22:20;;;;;;;7.35;5.10;;;;;;;;;;5050921;28;20106;-63
2022/03/18 12:24:50;;;;;;;10.07;5.22;;;;;;;;;;5048515;28;20044;-63
2022/03/18 12:27:17;;;;;;;7.13;4.75;;;;;;;;;;5048176;28;20059;-63
2022/03/18 12:29:43;;;;;;;10.85;8.02;;;;;;;;;;5051134;28;20055;-63
2022/03/18 12:32:10;;;;;;;8.98;4.90;;;;;;;;;;5049969;28;20037;-63
2022/03/18 12:34:49;;;;;;;9.75;4.97;;;;;;;;;;5050683;28;20544;-62
2022/03/18 12:37:22;;;;;;;7.18;4.88;;;;;;;;;;5051209;28;20068;-63
2022/03/18 12:40:01;;;;;;;7.40;4.97;;;;;;;;;;5046001;28;20120;-63
2022/03/18 12:42:27;;;;;;;7.13;4.72;;;;;;;;;;5040386;28;20043;-62
2022/03/18 12:44:59;;;;;;;8.10;4.50;;;;;;;;;;5041899;28;20048;-63
2022/03/18 12:47:27;;;;;;;6.85;4.28;;;;;;;;;;5050425;28;20048;-63
2022/03/18 12:49:53;;;;;;;7.07;4.35;;;;;;;;;;5043386;28;20037;-62
2022/03/18 12:52:19;;;;;;;7.03;3.60;;;;;;;;;;5042364;28;20037;-63
2022/03/18 12:55:05;;;;;;;6.03;3.40;;;;;;;;;;5048825;28;20713;-62
2022/03/18 12:57:37;;;;;;;8.20;3.70;;;;;;;;;;5045722;28;20039;-62
2022/03/18 13:00:08;;;;;;;6.88;4.00;;;;;;;;;;5044708;28;20474;-63
2022/03/18 13:02:34;;;;;;;6.88;3.78;;;;;;;;;;5020577;28;20124;-64
2022/03/18 13:05:02;;;;;;;6.90;3.83;;;;;;;;;;5040841;28;20051;-64
2022/03/18 13:07:28;;;;;;;7.53;4.13;;;;;;;;;;5039799;28;20045;-66
2022/03/18 13:09:55;;;;;;;10.25;4.50;;;;;;;;;;5023811;28;20044;-65
2022/03/18 13:12:29;;;;;;;5.57;3.17;;;;;;;;;;5049492;28;20033;-65
2022/03/18 13:14:56;;;;;;;6.80;3.15;;;;;;;;;;5032929;28;20045;-65
2022/03/18 13:17:30;;;;;;;4.40;2.83;;;;;;;;;;5044603;28;20044;-65
2022/03/18 13:19:56;;;;;;;6.80;4.05;;;;;;;;;;5037362;28;20040;-65
2022/03/18 13:22:24;;;;;;;5.72;3.35;;;;;;;;;;5040214;28;20048;-65
2022/03/18 13:24:51;;;;;;;6.18;3.33;;;;;;;;;;5050351;28;20048;-65
2022/03/18 13:27:18;;;;;;;6.43;3.65;;;;;;;;;;5041033;28;20044;-65
2022/03/18 13:35:15;;;;;;;5.90;3.35;;;;;;;;;;5045437;28;20040;-65
2022/03/18 13:37:41;;;;;;;9.07;3.70;;;;;;;;;;5043587;28;20041;-62
2022/03/18 13:40:10;;;;;;;6.63;3.40;;;;;;;;;;5047169;28;20033;-64
2022/03/18 13:42:36;;;;;;;6.38;3.25;;;;;;;;;;5046546;28;20082;-64
2022/03/18 13:45:03;;;;;;;5.95;3.30;;;;;;;;;;5051316;28;20041;-63
2022/03/18 13:47:29;;;;;;;4.85;2.53;;;;;;;;;;5049530;28;20547;-64
2022/03/18 13:49:59;;;;;;;4.22;2.33;;;;;;;;;;5047521;28;20040;-64
2022/03/18 13:52:33;;;;;;;5.43;2.88;;;;;;;;;;5049157;28;20506;-62
2022/03/18 13:54:59;;;;;;;6.38;3.05;;;;;;;;;;5042307;28;20179;-64
2022/03/18 13:57:25;;;;;;;5.13;2.90;;;;;;;;;;5045749;28;20044;-62
2022/03/18 13:59:54;;;;;;;4.93;2.97;;;;;;;;;;5048264;28;20119;-66
2022/03/18 14:02:25;;;;;;;5.72;3.58;;;;;;;;;;5049833;28;20509;-64
2022/03/18 14:04:55;;;;;;;5.65;3.42;;;;;;;;;;5030154;28;20053;-67
2022/03/18 14:07:21;;;;;;;4.63;3.05;;;;;;;;;;5046182;28;20063;-66
2022/03/18 14:10:04;;;;;;;5.78;3.40;;;;;;;;;;5044032;28;20037;-64
2022/03/18 14:12:30;;;;;;;6.18;3.70;;;;;;;;;;5048882;28;20086;-63
2022/03/18 14:15:11;;;;;;;5.03;2.97;;;;;;;;;;5047018;28;20095;-62
2022/03/18 14:17:55;;;;;;;8.18;3.92;;;;;;;;;;5033541;28;20045;-63
2022/03/18 14:20:22;;;;;;;5.85;3.83;;;;;;;;;;5052627;28;20509;-64
2022/03/18 14:22:52;;;;;;;5.30;3.20;;;;;;;;;;5051659;28;20076;-65
2022/03/18 14:25:18;;;;;;;8.88;3.90;;;;;;;;;;5051339;28;20106;-64
2022/03/18 14:27:50;;;;;;;5.65;3.20;;;;;;;;;;5052535;28;20063;-64
2022/03/18 14:30:17;;;;;;;7.45;3.40;;;;;;;;;;5051807;28;20081;-63
2022/03/18 14:32:44;;;;;;;4.80;2.47;;;;;;;;;;5052719;28;20106;-63
2022/03/18 14:35:11;;;;;;;4.63;2.67;;;;;;;;;;5050661;28;20040;-64
2022/03/18 14:37:38;;;;;;;6.05;2.90;;;;;;;;;;5052653;28;20044;-62
2022/03/18 14:40:05;;;;;;;4.47;2.80;;;;;;;;;;5051127;28;20091;-64
2022/03/18 14:42:32;;;;;;;9.23;3.35;;;;;;;;;;5047602;28;20029;-63
2022/03/18 14:44:58;;;;;;;7.15;3.10;;;;;;;;;;5042616;28;20122;-63
2022/03/18 14:47:25;;;;;;;11.13;3.55;;;;;;;;;;5042373;28;20095;-63
2022/03/18 14:49:52;;;;;;;7.47;3.70;;;;;;;;;;5024321;28;20733;-64
2022/03/18 14:52:19;;;;;;;6.10;3.35;;;;;;;;;;5045479;28;20135;-63
2022/03/18 14:57:31;;;;;;;5.88;3.63;;;;;;;;;;5051215;28;20041;-63
2022/03/18 14:59:57;;;;;;;8.88;4.75;;;;;;;;;;5050986;28;20120;-64
2022/03/18 15:02:24;;;;;;;7.35;4.10;;;;;;;;;;5050049;28;20037;-64
2022/03/18 15:04:51;;;;;;;7.70;3.75;;;;;;;;;;5044833;28;20446;-64
2022/03/18 15:07:18;;;;;;;6.30;3.72;;;;;;;;;;5040740;28;20064;-63